Time;durP1;ratioP1;P1;durP2;ratioP2;P2;SDS_P1;SDS_P2;PMS_P1;PMS_P2;Temp;Humidity;BMP_temperature;BMP_pressure;BME280_temperature;BME280_humidity;BME280_pressure;Samples;Min_cycle;Max_cycle;Signal;HPM_P1;HPM_P2
2021/12/04 00:01:49;;;;;;;7.97;2.28;;;;;;;2.00;100.00;96586.88;5036767;28;20057;-79
2021/12/04 00:04:35;;;;;;;5.80;2.08;;;;;;;1.87;100.00;96560.88;5035224;28;20123;-78
2021/12/04 00:07:26;;;;;;;4.35;1.80;;;;;;;1.88;100.00;96563.25;5036237;28;20456;-78
2021/12/04 00:10:04;;;;;;;6.10;2.00;;;;;;;1.92;100.00;96557.34;5035964;28;20051;-78
2021/12/04 00:12:38;;;;;;;7.03;1.85;;;;;;;2.01;100.00;96563.66;5036183;28;20575;-80
2021/12/04 00:15:08;;;;;;;6.10;1.73;;;;;;;1.87;100.00;96540.34;5037314;28;20064;-78
2021/12/04 00:17:35;;;;;;;5.93;1.95;;;;;;;1.91;100.00;96547.78;5038169;28;20053;-79
2021/12/04 00:20:06;;;;;;;4.88;1.73;;;;;;;1.89;100.00;96542.72;5040506;28;20059;-78
2021/12/04 00:22:36;;;;;;;3.47;1.67;;;;;;;2.08;100.00;96554.22;5044199;28;20100;-79
2021/12/04 00:25:06;;;;;;;3.25;1.85;;;;;;;1.98;100.00;96524.19;5039326;28;20050;-79
2021/12/04 00:27:38;;;;;;;4.50;1.88;;;;;;;2.02;100.00;96534.00;5038059;28;20053;-80
2021/12/04 00:30:12;;;;;;;3.67;1.88;;;;;;;2.05;100.00;96541.44;5035789;28;20046;-81
2021/12/04 00:32:57;;;;;;;7.97;2.10;;;;;;;2.08;100.00;96530.19;5035381;28;20049;-79
2021/12/04 00:51:38;;;;;;;5.00;2.40;;;;;;;2.05;100.00;96490.75;5039486;28;20454;-79
2021/12/04 00:54:05;;;;;;;4.40;1.90;;;;;;;1.97;100.00;96478.03;5044947;28;20046;-80
2021/12/04 00:56:34;;;;;;;5.53;2.10;;;;;;;2.01;100.00;96481.75;5043049;28;20097;-80
2021/12/04 00:59:01;;;;;;;6.88;2.90;;;;;;;2.04;100.00;96475.78;5036116;28;20132;-78
2021/12/04 01:01:30;;;;;;;5.22;2.00;;;;;;;2.12;100.00;96495.69;5035976;28;20068;-82
2021/12/04 01:03:59;;;;;;;4.50;1.80;;;;;;;2.12;100.00;96493.84;5034960;28;20536;-78
2021/12/04 01:06:26;;;;;;;5.07;1.85;;;;;;;2.06;100.00;96480.88;5034774;28;20485;-81
2021/12/04 01:08:57;;;;;;;4.57;1.88;;;;;;;2.11;100.00;96492.25;5035295;28;20144;-80
2021/12/04 01:11:26;;;;;;;5.18;1.70;;;;;;;2.07;100.00;96488.56;5033680;28;20512;-81
2021/12/04 01:13:53;;;;;;;4.45;2.03;;;;;;;2.10;100.00;96489.88;5035130;28;20052;-79
2021/12/04 01:20:50;;;;;;;4.70;2.30;;;;;;;2.04;100.00;96489.13;5037991;28;20151;-79
2021/12/04 01:24:48;;;;;;;3.17;1.70;;;;;;;2.13;100.00;96486.63;5043504;28;20069;-81
2021/12/04 01:28:04;;;;;;;;;;;;;;;;;;;;;
2021/12/04 01:34:38;;;;;;;6.35;2.35;;;;;;;2.13;100.00;96484.75;5031598;28;19974;-80
2021/12/04 01:37:20;;;;;;;4.78;2.30;;;;;;;2.18;100.00;96491.88;5035506;28;20091;-83
2021/12/04 01:39:53;;;;;;;6.78;3.05;;;;;;;2.11;100.00;96491.47;5035117;28;20060;-80
2021/12/04 01:42:41;;;;;;;4.50;2.10;;;;;;;2.12;100.00;96493.84;5034321;28;20063;-83
2021/12/04 01:45:42;;;;;;;4.28;2.28;;;;;;;2.08;100.00;96484.81;5035477;28;20052;-80
2021/12/04 01:48:14;;;;;;;4.57;2.33;;;;;;;2.26;100.00;96504.59;5038072;28;20049;-79
2021/12/04 01:50:42;;;;;;;4.78;2.10;;;;;;;2.12;100.00;96493.84;5042392;28;20053;-79
2021/12/04 01:53:11;;;;;;;6.18;2.28;;;;;;;2.18;100.00;96481.22;5040199;28;20053;-82
2021/12/04 01:55:42;;;;;;;3.90;2.10;;;;;;;2.16;100.00;96483.38;5037586;28;20053;-82
2021/12/04 01:58:14;;;;;;;4.65;2.13;;;;;;;2.24;100.00;96475.53;5035222;28;20147;-78
2021/12/04 02:00:51;;;;;;;5.88;2.38;;;;;;;2.34;100.00;96493.25;5033879;28;20120;-79
2021/12/04 02:03:21;;;;;;;4.13;2.15;;;;;;;2.35;100.00;96474.25;5035597;28;20394;-78
2021/12/04 02:05:51;;;;;;;5.72;2.08;;;;;;;2.34;100.00;96459.34;5034683;28;20118;-77
2021/12/04 02:08:33;;;;;;;4.90;2.22;;;;;;;2.28;100.00;96444.47;5034094;28;20053;-78
2021/12/04 02:11:11;;;;;;;4.65;2.35;;;;;;;2.30;100.00;96453.00;5034196;28;20103;-79
2021/12/04 02:20:41;;;;;;;;;;;;;;;;;;;;;
2021/12/04 02:23:34;;;;;;;;;;;;;;;2.60;100.00;96459.72;5042602;28;20079;-84
2021/12/04 02:26:15;;;;;;;6.35;2.42;;;;;;;2.46;100.00;96435.66;5033648;28;19925;-79
2021/12/04 02:29:04;;;;;;;;;;;;;;;;;;;;;
2021/12/04 02:35:41;;;;;;;5.28;2.50;;;;;;;2.43;100.00;96430.09;5031809;28;20080;-83
2021/12/04 02:38:27;;;;;;;3.60;2.30;;;;;;;2.49;100.00;96421.72;5034028;28;20115;-79
2021/12/04 02:41:04;;;;;;;6.90;2.85;;;;;;;2.61;100.00;96444.50;5034804;28;20049;-82
2021/12/04 02:43:46;;;;;;;6.45;3.22;;;;;;;2.44;100.00;96429.00;5034758;28;20509;-79
2021/12/04 02:46:16;;;;;;;8.00;2.47;;;;;;;2.42;100.00;96412.50;5033279;28;20053;-80
2021/12/04 02:48:47;;;;;;;9.18;2.90;;;;;;;2.34;100.00;96427.31;5034849;28;20391;-79
2021/12/04 02:51:30;;;;;;;5.55;2.67;;;;;;;2.36;100.00;96427.00;5042299;28;20037;-84
2021/12/04 02:54:00;;;;;;;5.82;2.95;;;;;;;2.27;100.00;96413.53;5036497;28;20055;-79
2021/12/04 02:56:30;;;;;;;9.05;3.53;;;;;;;2.14;100.00;96403.59;5033169;28;20105;-82
2021/12/04 02:59:11;;;;;;;8.93;3.53;;;;;;;2.25;100.00;96423.69;5033296;28;20125;-82
2021/12/04 03:01:53;;;;;;;8.55;3.72;;;;;;;2.11;100.00;96424.75;5032330;28;20068;-81
2021/12/04 03:04:27;;;;;;;8.02;3.33;;;;;;;2.00;100.00;96408.09;5033641;28;20042;-81
2021/12/04 03:06:56;;;;;;;7.75;3.95;;;;;;;1.88;100.00;96407.75;5031727;28;20053;-83
2021/12/04 03:09:26;;;;;;;8.63;3.92;;;;;;;1.85;100.00;96425.13;5031823;28;20078;-80
2021/12/04 03:11:56;;;;;;;8.65;4.65;;;;;;;1.75;100.00;96414.59;5032302;28;20080;-79
2021/12/04 03:14:29;;;;;;;10.27;4.80;;;;;;;1.70;100.00;96413.88;5032931;28;20405;-83
2021/12/04 03:16:59;;;;;;;10.80;5.15;;;;;;;1.66;100.00;96402.97;5034937;28;20148;-79
2021/12/04 03:19:28;;;;;;;10.10;5.10;;;;;;;1.74;100.00;96421.00;5041494;28;20040;-90
2021/12/04 03:21:56;;;;;;;10.77;5.30;;;;;;;1.75;100.00;96406.59;5036136;28;20080;-79
2021/12/04 03:24:27;;;;;;;11.38;5.32;;;;;;;1.78;100.00;96395.31;5035792;28;20058;-77
2021/12/04 03:26:58;;;;;;;11.65;5.25;;;;;;;1.71;100.00;96381.56;5034166;28;20064;-79
2021/12/04 03:29:34;;;;;;;12.40;5.80;;;;;;;1.86;100.00;96392.00;5033454;28;20042;-79
2021/12/04 03:32:16;;;;;;;;;;;;;;;1.94;100.00;96411.91;5034167;28;20045;-79
2021/12/04 03:40:56;;;;;;;14.32;6.35;;;;;;;1.83;100.00;96381.13;5036150;28;20053;-80
2021/12/04 03:43:30;;;;;;;16.52;6.72;;;;;;;1.85;100.00;96393.09;5034768;28;20154;-78
2021/12/04 03:46:13;;;;;;;14.43;7.18;;;;;;;1.75;100.00;96376.44;5040612;28;20041;-80
2021/12/04 03:48:52;;;;;;;13.13;6.47;;;;;;;1.69;100.00;96366.94;5043077;28;20037;-82
2021/12/04 03:51:25;;;;;;;16.77;8.00;;;;;;;1.82;100.00;96384.88;5040043;28;20038;-77
2021/12/04 03:54:03;;;;;;;16.58;8.07;;;;;;;1.75;100.00;96377.25;5040103;28;20053;-82
2021/12/04 03:56:43;;;;;;;19.13;8.57;;;;;;;1.72;100.00;96369.03;5037682;28;20428;-78
2021/12/04 03:59:22;;;;;;;20.70;8.52;;;;;;;1.68;100.00;96360.00;5038187;28;20038;-80
2021/12/04 04:02:23;;;;;;;14.73;8.18;;;;;;;1.60;100.00;96363.34;5038275;28;20052;-79
2021/12/04 04:05:09;;;;;;;16.67;8.40;;;;;;;1.72;100.00;96359.16;5035142;28;20164;-84
2021/12/04 04:07:37;;;;;;;16.23;8.48;;;;;;;1.62;100.00;96361.16;5037601;28;20057;-79
2021/12/04 04:10:05;;;;;;;18.98;8.50;;;;;;;1.81;100.00;96356.59;5036899;28;20053;-79
2021/12/04 04:12:32;;;;;;;16.10;8.32;;;;;;;1.66;100.00;96349.63;5035731;28;20041;-78
2021/12/04 04:14:59;;;;;;;16.95;8.60;;;;;;;1.72;100.00;96351.16;5049924;22;20046;-87
2021/12/04 04:17:31;;;;;;;17.85;8.38;;;;;;;1.75;100.00;96353.25;5024767;28;20088;-85
2021/12/04 04:19:58;;;;;;;15.50;8.18;;;;;;;1.87;100.00;96358.13;5007679;28;20050;-86
2021/12/04 04:22:25;;;;;;;16.52;9.30;;;;;;;1.75;100.00;96339.09;5039003;22;20050;-78
2021/12/04 04:24:51;;;;;;;13.45;8.10;;;;;;;1.79;100.00;96346.22;5020343;28;20057;-78
2021/12/04 04:27:18;;;;;;;15.93;8.68;;;;;;;1.74;100.00;96337.50;5018063;28;20541;-77
2021/12/04 04:29:44;;;;;;;18.75;8.48;;;;;;;1.80;100.00;96339.03;5004296;28;20058;-79
2021/12/04 04:32:12;;;;;;;17.70;9.02;;;;;;;1.75;100.00;96339.09;4987374;28;20045;-80
2021/12/04 04:35:21;;;;;;;15.98;8.32;;;;;;;1.62;100.00;96342.50;4997725;28;20098;-78
2021/12/04 04:38:18;;;;;;;19.17;9.18;;;;;;;1.65;100.00;96340.03;5005791;28;20088;-78
2021/12/04 04:58:56;;;;;;;17.20;8.50;;;;;;;1.78;100.00;96314.53;4997245;28;20576;-80
2021/12/04 05:14:40;;;;;;;23.80;9.60;;;;;;;1.80;100.00;96299.81;4996798;28;20425;-78
2021/12/04 05:17:13;;;;;;;20.35;10.07;;;;;;;1.83;100.00;96309.09;4997289;28;20062;-81
2021/12/04 05:19:53;;;;;;;20.10;9.50;;;;;;;1.84;100.00;96294.66;5000706;28;20137;-88
2021/12/04 05:22:21;;;;;;;18.48;9.25;;;;;;;1.77;100.00;96297.72;4985557;28;20141;-78
2021/12/04 05:24:48;;;;;;;18.95;9.40;;;;;;;1.85;100.00;96302.41;4980068;28;20076;-77
2021/12/04 05:27:17;;;;;;;18.83;10.07;;;;;;;1.78;100.00;96295.84;4981970;28;20054;-77
2021/12/04 05:29:47;;;;;;;18.35;10.20;;;;;;;1.77;100.00;96284.38;4979927;28;20116;-77
2021/12/04 05:32:19;;;;;;;22.40;9.98;;;;;;;1.89;100.00;96294.59;4980832;28;20058;-78
2021/12/04 05:34:48;;;;;;;21.65;9.98;;;;;;;1.75;100.00;96291.91;4980515;28;20054;-79
2021/12/04 05:37:17;;;;;;;19.95;9.85;;;;;;;1.63;100.00;96280.06;4979322;28;20138;-78
2021/12/04 05:39:46;;;;;;;19.05;10.15;;;;;;;1.74;100.00;96300.16;4978628;28;20197;-79
2021/12/04 05:42:27;;;;;;;17.42;9.68;;;;;;;1.52;100.00;96274.13;4980710;28;20112;-76
2021/12/04 05:45:27;;;;;;;22.25;10.68;;;;;;;1.55;100.00;96270.84;4969098;28;20054;-78
2021/12/04 05:48:24;;;;;;;22.42;9.93;;;;;;;1.52;100.00;96268.78;4981047;28;20054;-78
2021/12/04 05:51:22;;;;;;;17.55;9.65;;;;;;;1.58;100.00;96272.16;4985573;28;20046;-78
2021/12/04 05:56:17;;;;;;;19.10;10.20;;;;;;;1.64;100.00;96285.13;4996059;28;20058;-79
2021/12/04 05:58:44;;;;;;;21.27;10.50;;;;;;;1.68;100.00;96288.00;4993784;28;20066;-79
2021/12/04 06:01:11;;;;;;;21.58;11.13;;;;;;;1.58;100.00;96288.94;5004791;28;20047;-80
2021/12/04 06:03:52;;;;;;;21.15;11.02;;;;;;;1.57;100.00;96267.91;4980290;28;20121;-79
2021/12/04 06:06:26;;;;;;;21.73;10.98;;;;;;;1.54;100.00;96281.81;4977993;28;20590;-79
2021/12/04 06:08:53;;;;;;;20.92;11.00;;;;;;;1.64;100.00;96269.13;4993076;28;20058;-79
2021/12/04 06:11:20;;;;;;;23.75;11.73;;;;;;;1.59;100.00;96269.22;4991854;28;20078;-79
2021/12/04 06:13:47;;;;;;;20.58;11.30;;;;;;;1.65;100.00;96273.34;4994096;28;20565;-78
2021/12/04 06:16:14;;;;;;;23.45;12.05;;;;;;;1.62;100.00;96278.50;4975622;28;20109;-79
2021/12/04 06:18:46;;;;;;;21.88;11.18;;;;;;;1.62;100.00;96270.50;4979222;28;20524;-79
2021/12/04 06:23:59;;;;;;;26.75;11.02;;;;;;;1.65;100.00;96268.03;5000113;28;20116;-79
2021/12/04 06:26:25;;;;;;;24.73;11.38;;;;;;;1.61;100.00;96261.69;4995830;28;20061;-79
2021/12/04 06:28:52;;;;;;;20.50;11.00;;;;;;;1.52;100.00;96252.00;4977024;28;20100;-79
2021/12/04 06:31:19;;;;;;;28.90;11.52;;;;;;;1.62;100.00;96267.84;4975758;28;20121;-78
2021/12/04 06:33:46;;;;;;;22.80;10.70;;;;;;;1.54;100.00;96257.81;4995034;28;20058;-79
2021/12/04 06:36:13;;;;;;;19.58;10.30;;;;;;;1.59;100.00;96263.06;4974224;28;20101;-78
2021/12/04 06:38:39;;;;;;;19.40;10.65;;;;;;;1.57;100.00;96259.91;4962204;28;20081;-79
2021/12/04 06:41:06;;;;;;;22.77;11.02;;;;;;;1.54;100.00;96257.81;4958965;28;20051;-79
2021/12/04 06:43:34;;;;;;;20.00;10.18;;;;;;;1.58;100.00;96258.81;4958923;28;20055;-79
2021/12/04 06:46:02;;;;;;;18.73;10.52;;;;;;;1.64;100.00;96266.47;4959368;28;20050;-79
2021/12/04 06:48:51;;;;;;;19.08;10.27;;;;;;;1.68;100.00;96266.66;4959059;28;20058;-80
2021/12/04 06:56:26;;;;;;;18.85;9.98;;;;;;;1.50;100.00;96246.94;4974123;28;20062;-79
2021/12/04 06:58:53;;;;;;;18.15;9.55;;;;;;;1.58;100.00;96246.28;4973906;28;20051;-79
2021/12/04 07:01:20;;;;;;;16.38;8.93;;;;;;;1.55;100.00;96254.84;4955585;28;20121;-78
2021/12/04 07:03:48;;;;;;;15.30;8.48;;;;;;;1.54;100.00;96245.28;4956843;28;20059;-79
2021/12/04 07:06:14;;;;;;;17.90;8.70;;;;;;;1.50;100.00;96238.16;4974475;28;20510;-78
2021/12/04 07:08:41;;;;;;;15.77;8.55;;;;;;;1.58;100.00;96242.81;4974219;28;20051;-79
2021/12/04 07:11:08;;;;;;;17.23;9.07;;;;;;;1.57;100.00;96239.38;4955241;28;20900;-78
2021/12/04 07:13:34;;;;;;;16.63;8.23;;;;;;;1.50;100.00;96238.94;5009257;28;20107;-78
2021/12/04 07:16:05;;;;;;;17.15;9.32;;;;;;;1.64;100.00;96237.13;5012152;28;20081;-79
2021/12/04 07:18:33;;;;;;;21.98;9.07;;;;;;;1.51;100.00;96229.06;4995735;28;20057;-79
2021/12/04 07:21:00;;;;;;;17.27;8.38;;;;;;;1.62;100.00;96233.97;5025134;28;20050;-78
2021/12/04 07:23:27;;;;;;;19.55;9.63;;;;;;;1.57;100.00;96236.72;5018832;28;20049;-79
2021/12/04 07:25:53;;;;;;;21.88;10.10;;;;;;;1.57;100.00;96236.72;5016746;28;20054;-79
2021/12/04 07:28:20;;;;;;;24.83;9.20;;;;;;;1.57;100.00;96231.38;5017987;28;20116;-78
2021/12/04 07:30:47;;;;;;;18.92;10.32;;;;;;;1.68;100.00;96231.97;5017238;28;20081;-78
2021/12/04 07:33:15;;;;;;;21.73;9.77;;;;;;;1.65;100.00;96222.69;5006072;28;20046;-79
2021/12/04 07:35:41;;;;;;;17.52;9.05;;;;;;;1.65;100.00;96213.91;5028357;28;20049;-78
2021/12/04 07:38:10;;;;;;;15.57;8.60;;;;;;;1.74;100.00;96226.28;5017449;28;20469;-79
2021/12/04 07:40:38;;;;;;;15.40;8.10;;;;;;;1.84;100.00;96235.97;5004348;28;20046;-80
2021/12/04 07:43:07;;;;;;;19.65;8.50;;;;;;;1.83;100.00;96234.41;5005544;28;20104;-78
2021/12/04 07:45:47;;;;;;;17.48;8.52;;;;;;;1.88;100.00;96234.31;5003234;28;20073;-79
2021/12/04 07:48:16;;;;;;;14.85;8.15;;;;;;;1.94;100.00;96233.13;5000194;28;20752;-79
2021/12/04 07:50:45;;;;;;;16.30;7.10;;;;;;;1.89;100.00;96231.34;4991904;28;20074;-79
2021/12/04 07:53:11;;;;;;;11.48;6.93;;;;;;;1.96;100.00;96230.19;5005735;28;20054;-79
2021/12/04 07:55:40;;;;;;;13.23;7.25;;;;;;;1.93;100.00;96220.91;4981473;28;20051;-79
2021/12/04 07:58:10;;;;;;;16.00;7.07;;;;;;;1.96;100.00;96217.66;4972974;28;20113;-79
2021/12/04 08:00:36;;;;;;;12.95;6.53;;;;;;;2.03;100.00;96215.38;4968197;28;20113;-79
2021/12/04 08:03:03;;;;;;;16.35;7.55;;;;;;;2.03;100.00;96212.69;4972953;28;20061;-78
2021/12/04 08:05:30;;;;;;;18.92;8.88;;;;;;;2.09;100.00;96214.16;5000863;28;20474;-77
2021/12/04 08:07:57;;;;;;;18.17;7.85;;;;;;;2.17;100.00;96208.16;4986990;28;20049;-79
2021/12/04 08:10:27;;;;;;;27.05;10.82;;;;;;;2.38;100.00;96212.00;4985692;28;20054;-82
2021/12/04 08:13:11;;;;;;;18.20;8.60;;;;;;;2.47;100.00;96206.78;4979646;28;20151;-82
2021/12/04 08:16:24;;;;;;;31.85;8.57;;;;;;;2.44;100.00;96205.50;4996265;28;20050;-82
2021/12/04 08:19:02;;;;;;;21.73;9.65;;;;;;;2.53;100.00;96199.47;4944929;28;20057;-78
2021/12/04 08:21:29;;;;;;;12.45;6.88;;;;;;;2.73;100.00;96204.38;4995152;28;20050;-79
2021/12/04 08:23:58;;;;;;;14.15;6.30;;;;;;;2.80;100.00;96202.06;4982016;28;20058;-79
2021/12/04 08:26:25;;;;;;;14.50;6.97;;;;;;;2.67;100.00;96200.22;4996289;28;20046;-78
2021/12/04 08:28:52;;;;;;;13.60;6.20;;;;;;;2.69;100.00;96193.47;4995012;28;20136;-78
2021/12/04 08:31:18;;;;;;;14.30;6.40;;;;;;;2.76;100.00;96209.13;4993345;28;20050;-78
2021/12/04 08:33:45;;;;;;;10.63;5.68;;;;;;;2.62;100.00;96193.09;4976748;28;20123;-78
2021/12/04 08:36:12;;;;;;;10.32;5.45;;;;;;;2.74;100.00;96200.59;4993010;28;20085;-78
2021/12/04 08:38:48;;;;;;;10.05;5.82;;;;;;;2.75;100.00;96200.31;4994219;28;20066;-79
2021/12/04 08:41:16;;;;;;;9.80;4.90;;;;;;;2.81;100.00;96198.31;4976521;28;20097;-79
2021/12/04 08:43:43;;;;;;;10.00;5.03;;;;;;;2.90;100.00;96185.81;5008896;28;20058;-78
2021/12/04 08:46:10;;;;;;;12.10;5.35;;;;;;;2.97;100.00;96184.31;4991888;28;20112;-79
2021/12/04 08:48:37;;;;;;;14.02;5.45;;;;;;;3.08;100.00;96190.22;4990147;28;20113;-78
2021/12/04 08:51:04;;;;;;;12.52;4.97;;;;;;;2.96;100.00;96181.97;4981219;28;20097;-78
2021/12/04 08:53:31;;;;;;;10.52;5.20;;;;;;;3.17;100.00;96191.09;4994732;28;20133;-78
2021/12/04 08:55:58;;;;;;;9.38;4.95;;;;;;;3.23;100.00;96197.88;4976801;28;20082;-78
2021/12/04 08:58:24;;;;;;;8.45;4.50;;;;;;;3.35;100.00;96184.78;4975571;28;20054;-79
2021/12/04 09:00:58;;;;;;;8.63;4.18;;;;;;;3.43;100.00;96186.69;4993092;28;20057;-79
2021/12/04 09:03:30;;;;;;;12.07;5.18;;;;;;;3.91;100.00;96183.38;4994944;28;20054;-79
2021/12/04 09:05:57;;;;;;;18.20;6.68;;;;;;;4.59;100.00;96175.63;4994905;28;20098;-79
2021/12/04 09:08:27;;;;;;;14.75;7.68;;;;;;;5.34;100.00;96183.22;4996921;28;20054;-79
2021/12/04 09:10:57;;;;;;;9.18;5.80;;;;;;;5.77;100.00;96188.56;5005211;28;20048;-80
2021/12/04 09:13:24;;;;;;;9.45;5.22;;;;;;;5.94;100.00;96188.53;4981165;28;20098;-79
2021/12/04 09:15:51;;;;;;;7.30;4.07;;;;;;;6.81;100.00;96181.69;4994639;28;20058;-78
2021/12/04 09:18:18;;;;;;;5.00;3.28;;;;;;;6.94;100.00;96169.09;4975680;28;20046;-76
2021/12/04 09:20:47;;;;;;;9.05;5.18;;;;;;;6.95;100.00;96168.78;4994484;28;20266;-78
2021/12/04 09:23:16;;;;;;;9.30;3.90;;;;;;;7.37;100.00;96167.66;5001216;28;20054;-79
2021/12/04 09:25:55;;;;;;;6.60;3.42;;;;;;;7.01;100.00;96169.38;5004984;28;20042;-78
2021/12/04 09:28:25;;;;;;;6.72;3.72;;;;;;;6.70;100.00;96169.72;4979683;28;20423;-77
2021/12/04 10:12:19;;;;;;;6.82;3.25;;;;;;;5.74;100.00;96123.97;4986447;28;19993;-77
2021/12/04 10:15:32;;;;;;;6.85;3.58;;;;;;;5.92;100.00;96118.25;4982420;28;20468;-78
2021/12/04 10:18:42;;;;;;;11.60;3.47;;;;;;;5.72;100.00;96110.09;4979991;28;20047;-77
2021/12/04 10:35:10;;;;;;;6.97;3.27;;;;;;;6.59;100.00;96091.34;4980926;28;20142;-77
2021/12/04 10:37:54;;;;;;;6.63;3.00;;;;;;;6.68;100.00;96086.72;4959311;28;20046;-78
2021/12/04 10:40:34;;;;;;;5.32;3.17;;;;;;;6.76;100.00;96083.16;4957746;28;20069;-78
2021/12/04 10:43:02;;;;;;;5.88;2.90;;;;;;;7.15;100.00;96073.81;4958082;28;20578;-77
2021/12/04 10:45:39;;;;;;;5.45;3.35;;;;;;;6.55;100.00;96077.00;4959053;28;20113;-77
2021/12/04 10:48:14;;;;;;;10.52;3.33;;;;;;;6.89;100.00;96079.41;4974960;28;20057;-77
2021/12/04 10:50:51;;;;;;;6.93;2.88;;;;;;;7.09;100.00;96075.16;4959701;28;20115;-78
2021/12/04 10:53:25;;;;;;;8.77;3.47;;;;;;;7.26;100.00;96058.81;5001485;28;20026;-78
2021/12/04 10:56:37;;;;;;;7.57;2.95;;;;;;;7.65;100.00;96065.53;4999489;28;20113;-78
2021/12/04 11:21:41;;;;;;;;;;;;;;;;;;;;;
2021/12/04 11:27:23;;;;;;;8.80;4.03;;;;;;;7.95;100.00;96029.19;5019166;28;20406;-77
2021/12/04 11:36:06;;;;;;;7.50;4.30;;;;;;;8.07;100.00;96026.53;5020709;28;20716;-79
2021/12/04 11:38:19;;;;;;;8.20;3.50;;;;;;;7.49;100.00;96025.00;5001994;28;20057;-78
2021/12/04 11:40:56;;;;;;;4.03;2.47;;;;;;;7.73;100.00;96013.50;4979764;28;20118;-78
2021/12/04 11:43:38;;;;;;;3.60;2.20;;;;;;;8.94;100.00;96018.72;4980785;28;20510;-78
2021/12/04 11:46:23;;;;;;;2.95;2.00;;;;;;;10.16;100.00;96006.03;4977786;28;20109;-79
2021/12/04 11:48:51;;;;;;;3.72;2.10;;;;;;;10.80;93.70;96004.72;4978692;28;20050;-78
2021/12/04 11:51:22;;;;;;;3.47;1.63;;;;;;;10.72;85.06;95990.25;4998452;23;20045;-81
2021/12/04 11:53:53;;;;;;;3.03;1.73;;;;;;;11.56;66.79;95985.66;5008803;28;20057;-83
2021/12/04 11:56:29;;;;;;;2.30;1.70;;;;;;;10.89;72.62;95994.47;5026802;28;20148;-83
2021/12/04 11:58:58;;;;;;;3.78;1.92;;;;;;;10.87;64.89;95983.19;5027053;28;20057;-81
2021/12/04 12:01:35;;;;;;;2.30;1.77;;;;;;;11.48;72.88;95978.56;5026341;28;20057;-84
2021/12/04 12:04:05;;;;;;;3.88;2.38;;;;;;;12.73;61.48;95974.66;5009790;28;20067;-81
2021/12/04 12:06:41;;;;;;;5.38;2.70;;;;;;;12.05;63.61;95976.81;5027365;28;20053;-81
2021/12/04 12:09:15;;;;;;;2.33;1.85;;;;;;;13.01;61.71;95977.72;5009409;28;20073;-81
2021/12/04 12:11:53;;;;;;;3.03;2.10;;;;;;;12.67;61.70;95970.72;5007399;28;20575;-82
2021/12/04 12:14:39;;;;;;;3.58;2.53;;;;;;;12.89;60.23;95963.63;5026843;28;20164;-82
2021/12/04 12:17:06;;;;;;;;;;;;;;;12.66;64.03;95954.81;5009487;28;20058;-82
2021/12/04 12:19:38;;;;;;;3.72;2.42;;;;;;;11.86;61.78;95953.28;5008423;28;19979;-83
2021/12/04 12:36:15;;;;;;;3.63;2.20;;;;;;;7.44;100.00;95941.78;5026734;28;20156;-80
2021/12/04 12:39:00;;;;;;;4.18;2.35;;;;;;;7.01;100.00;95948.78;5009412;28;20072;-80
2021/12/04 12:41:30;;;;;;;4.13;1.90;;;;;;;6.52;100.00;95955.91;5013173;28;20083;-81
2021/12/04 12:43:56;;;;;;;2.78;1.88;;;;;;;5.77;100.00;95949.63;5011224;28;20107;-82
2021/12/04 12:46:52;;;;;;;3.10;2.20;;;;;;;6.03;100.00;95942.22;5028137;28;20194;-83
2021/12/04 12:49:28;;;;;;;3.63;2.05;;;;;;;6.22;100.00;95941.75;5011601;28;20067;-81
2021/12/04 12:52:03;;;;;;;3.15;2.20;;;;;;;6.29;100.00;95950.09;5013687;28;20319;-81
2021/12/04 12:54:34;;;;;;;2.97;1.95;;;;;;;6.47;100.00;95935.38;5027866;28;20461;-82
2021/12/04 12:57:14;;;;;;;4.15;2.22;;;;;;;6.30;100.00;95948.19;5026173;28;20049;-82
2021/12/04 12:59:57;;;;;;;3.33;2.15;;;;;;;6.19;100.00;95945.88;5008087;28;20053;-82
2021/12/04 13:14:13;;;;;;;4.70;2.90;;;;;;;6.23;100.00;95932.56;5025100;28;20054;-82
2021/12/04 13:16:42;;;;;;;3.70;2.53;;;;;;;6.19;100.00;95932.44;5025481;28;20076;-82
2021/12/04 13:19:14;;;;;;;4.35;3.00;;;;;;;6.13;100.00;95928.41;5026010;28;20088;-81
2021/12/04 13:21:47;;;;;;;8.20;4.32;;;;;;;6.03;100.00;95915.34;5007327;28;20050;-81
2021/12/04 13:24:16;;;;;;;7.90;5.18;;;;;;;5.96;100.00;95919.69;5009354;28;20469;-81
2021/12/04 13:26:48;;;;;;;9.73;4.97;;;;;;;5.87;100.00;95919.72;5006808;28;20528;-81
2021/12/04 13:29:19;;;;;;;8.43;4.80;;;;;;;5.65;100.00;95917.31;5006892;28;20049;-81
2021/12/04 13:31:47;;;;;;;7.50;4.57;;;;;;;5.44;100.00;95901.19;5006410;28;20042;-81
2021/12/04 13:34:23;;;;;;;8.77;4.97;;;;;;;5.58;100.00;95904.41;5006567;28;20505;-82
2021/12/04 13:36:53;;;;;;;11.27;5.20;;;;;;;5.38;100.00;95899.00;5007325;28;20194;-80
2021/12/04 13:39:21;;;;;;;9.15;4.68;;;;;;;4.86;100.00;95907.25;5007381;28;20045;-79
2021/12/04 13:41:51;;;;;;;9.65;4.93;;;;;;;4.82;100.00;95897.50;5005692;28;20438;-79
2021/12/04 13:44:23;;;;;;;8.27;5.05;;;;;;;5.01;100.00;95905.94;5007222;28;20060;-79
2021/12/04 13:47:04;;;;;;;10.73;5.45;;;;;;;4.90;100.00;95908.19;5007239;28;20482;-81
2021/12/04 13:50:06;;;;;;;9.05;5.43;;;;;;;4.82;100.00;95905.53;5008120;28;20083;-80
2021/12/04 13:52:34;;;;;;;10.40;5.57;;;;;;;4.62;100.00;95901.63;5000349;28;20050;-80
2021/12/04 13:55:09;;;;;;;9.57;5.60;;;;;;;4.80;100.00;95897.81;5002709;28;20111;-79
2021/12/04 13:57:43;;;;;;;9.73;5.90;;;;;;;4.53;100.00;95908.91;4988661;28;20108;-80
2021/12/04 14:00:13;;;;;;;8.95;5.32;;;;;;;4.54;100.00;95899.00;4987383;28;20057;-79
2021/12/04 14:02:41;;;;;;;9.77;5.50;;;;;;;4.59;100.00;95902.31;5004457;28;20125;-80
2021/12/04 14:05:13;;;;;;;9.38;5.63;;;;;;;4.35;100.00;95905.47;4991788;28;20061;-82
2021/12/04 14:07:54;;;;;;;10.30;5.80;;;;;;;4.25;100.00;95894.31;5008131;28;20097;-80
2021/12/04 14:10:33;;;;;;;10.82;5.97;;;;;;;4.26;100.00;95895.88;5007298;28;20069;-79
2021/12/04 14:13:02;;;;;;;10.40;5.95;;;;;;;4.25;100.00;95897.78;5006702;28;20338;-80
2021/12/04 14:15:29;;;;;;;10.98;6.18;;;;;;;4.17;100.00;95884.38;5008130;28;20122;-82
2021/12/04 14:18:10;;;;;;;10.00;5.82;;;;;;;4.05;100.00;95879.66;5026152;28;20561;-80
2021/12/04 14:20:43;;;;;;;13.68;6.90;;;;;;;4.04;100.00;95888.81;5006595;28;20313;-83
2021/12/04 14:23:10;;;;;;;12.57;6.20;;;;;;;3.97;100.00;95890.38;5025773;28;20057;-80
2021/12/04 14:25:43;;;;;;;11.68;6.70;;;;;;;3.81;100.00;95884.72;5006884;28;20069;-80
2021/12/04 14:28:13;;;;;;;10.50;6.10;;;;;;;3.65;100.00;95887.06;5008114;28;20484;-82
2021/12/04 14:30:45;;;;;;;10.35;6.03;;;;;;;3.51;100.00;95888.31;5006166;28;20196;-80
2021/12/04 14:33:17;;;;;;;9.63;6.00;;;;;;;3.59;100.00;95874.94;4987336;28;20104;-79
2021/12/04 14:35:49;;;;;;;11.77;5.78;;;;;;;3.46;100.00;95870.50;4987503;28;20080;-80
2021/12/04 14:38:24;;;;;;;11.38;5.82;;;;;;;3.24;100.00;95873.28;4989041;28;20559;-81
2021/12/04 14:40:55;;;;;;;11.57;6.33;;;;;;;3.23;100.00;95887.75;5008260;28;20058;-82
2021/12/04 14:43:25;;;;;;;10.00;5.78;;;;;;;3.21;100.00;95881.13;4991664;28;20427;-83
2021/12/04 14:45:56;;;;;;;12.88;6.97;;;;;;;3.13;100.00;95875.47;4987403;28;20112;-81
2021/12/04 14:48:35;;;;;;;11.55;6.65;;;;;;;2.94;100.00;95880.25;5007961;28;20073;-80
2021/12/04 14:51:08;;;;;;;13.02;6.97;;;;;;;2.93;100.00;95865.34;4990416;28;20134;-80
2021/12/04 14:53:39;;;;;;;13.40;7.55;;;;;;;2.86;100.00;95864.22;4997830;28;20060;-82
2021/12/04 14:56:09;;;;;;;13.30;7.22;;;;;;;2.81;100.00;95864.34;4987945;28;20062;-81
2021/12/04 14:58:36;;;;;;;14.20;6.82;;;;;;;2.85;100.00;95868.78;4990473;28;20054;-81
2021/12/04 15:01:12;;;;;;;11.65;6.90;;;;;;;2.72;100.00;95868.84;5005075;28;20084;-82
2021/12/04 15:03:51;;;;;;;14.23;7.70;;;;;;;2.72;100.00;95863.50;5004471;28;20061;-82
2021/12/04 15:06:20;;;;;;;12.43;7.30;;;;;;;2.70;100.00;95860.38;4987166;28;20673;-81
2021/12/04 15:08:54;;;;;;;11.77;6.95;;;;;;;2.75;100.00;95862.91;5005297;28;20153;-83
2021/12/04 15:11:29;;;;;;;12.15;7.00;;;;;;;2.45;100.00;95867.19;5005255;28;20101;-81
2021/12/04 15:14:07;;;;;;;14.63;7.65;;;;;;;2.65;100.00;95865.84;5007742;28;20548;-84
2021/12/04 15:16:46;;;;;;;12.07;6.95;;;;;;;2.62;100.00;95858.44;5010329;28;20060;-83
2021/12/04 15:19:27;;;;;;;11.35;6.40;;;;;;;2.56;100.00;95871.13;5025679;28;20050;-82
2021/12/04 15:21:59;;;;;;;14.15;6.75;;;;;;;2.58;100.00;95860.97;5025464;28;20532;-83